sensor_id;sensor_type;location;lat;lon;timestamp;temperature;humidity
4107;DHT22;21906;50.812;7.132;2024-01-15T00:02:17;3.60;72.90
4107;DHT22;21906;50.812;7.132;2024-01-15T00:04:43;3.60;72.70
4107;DHT22;21906;50.812;7.132;2024-01-15T00:07:12;3.70;72.80
4107;DHT22;21906;50.812;7.132;2024-01-15T00:09:40;3.70;72.60
4107;DHT22;21906;50.812;7.132;2024-01-15T00:12:06;3.70;72.70
4107;DHT22;21906;50.812;7.132;2024-01-15T00:14:32;3.60;72.80
4107;DHT22;21906;50.812;7.132;2024-01-15T00:16:57;3.60;73.10
4107;DHT22;21906;50.812;7.132;2024-01-15T00:19:23;3.60;73.70
4107;DHT22;21906;50.812;7.132;2024-01-15T00:21:52;3.60;74.20
4107;DHT22;21906;50.812;7.132;2024-01-15T00:24:18;3.50;74.80
4107;DHT22;21906;50.812;7.132;2024-01-15T00:26:43;3.50;75.40
4107;DHT22;21906;50.812;7.132;2024-01-15T00:29:09;3.60;75.60
4107;DHT22;21906;50.812;7.132;2024-01-15T00:31:35;3.70;75.10
4107;DHT22;21906;50.812;7.132;2024-01-15T00:34:01;3.70;74.80
4107;DHT22;21906;50.812;7.132;2024-01-15T00:36:27;3.60;74.70
4107;DHT22;21906;50.812;7.132;2024-01-15T00:38:53;3.60;75.00
4107;DHT22;21906;50.812;7.132;2024-01-15T00:41:19;3.50;75.20
4107;DHT22;21906;50.812;7.132;2024-01-15T00:43:45;3.60;75.30
4107;DHT22;21906;50.812;7.132;2024-01-15T00:46:11;3.60;75.70
4107;DHT22;21906;50.812;7.132;2024-01-15T00:48:38;3.60;76.00
4107;DHT22;21906;50.812;7.132;2024-01-15T00:51:07;3.60;76.30
4107;DHT22;21906;50.812;7.132;2024-01-15T00:53:32;3.50;76.50
4107;DHT22;21906;50.812;7.132;2024-01-15T00:55:58;3.50;76.80
4107;DHT22;21906;50.812;7.132;2024-01-15T00:58:24;3.50;76.90
4107;DHT22;21906;50.812;7.132;2024-01-15T01:00:49;3.40;77.10
4107;DHT22;21906;50.812;7.132;2024-01-15T01:03:15;3.50;76.90
4107;DHT22;21906;50.812;7.132;2024-01-15T01:05:41;3.50;76.90
4107;DHT22;21906;50.812;7.132;2024-01-15T01:08:10;3.50;77.10
4107;DHT22;21906;50.812;7.132;2024-01-15T01:10:36;3.50;77.50
4107;DHT22;21906;50.812;7.132;2024-01-15T01:13:01;3.50;77.50
4107;DHT22;21906;50.812;7.132;2024-01-15T01:15:27;3.40;77.80
4107;DHT22;21906;50.812;7.132;2024-01-15T01:17:53;3.40;77.80
4107;DHT22;21906;50.812;7.132;2024-01-15T01:20:18;3.50;78.00
4107;DHT22;21906;50.812;7.132;2024-01-15T01:22:44;3.50;77.90
4107;DHT22;21906;50.812;7.132;2024-01-15T01:25:10;3.40;78.00
4107;DHT22;21906;50.812;7.132;2024-01-15T01:27:35;3.40;78.00
4107;DHT22;21906;50.812;7.132;2024-01-15T01:30:01;3.40;77.80
4107;DHT22;21906;50.812;7.132;2024-01-15T01:32:27;3.40;77.60
4107;DHT22;21906;50.812;7.132;2024-01-15T01:34:53;3.40;77.80
4107;DHT22;21906;50.812;7.132;2024-01-15T01:37:19;3.50;77.80
4107;DHT22;21906;50.812;7.132;2024-01-15T01:39:44;3.40;78.00
4107;DHT22;21906;50.812;7.132;2024-01-15T01:42:11;3.30;78.60
4107;DHT22;21906;50.812;7.132;2024-01-15T01:44:38;3.30;78.90
4107;DHT22;21906;50.812;7.132;2024-01-15T01:47:04;3.30;79.00
4107;DHT22;21906;50.812;7.132;2024-01-15T01:49:30;3.30;79.10
4107;DHT22;21906;50.812;7.132;2024-01-15T01:51:57;3.30;79.40
4107;DHT22;21906;50.812;7.132;2024-01-15T01:54:25;3.20;79.60
4107;DHT22;21906;50.812;7.132;2024-01-15T01:56:51;3.40;79.70
4107;DHT22;21906;50.812;7.132;2024-01-15T01:59:17;3.40;79.30
4107;DHT22;21906;50.812;7.132;2024-01-15T02:01:44;3.40;78.90
4107;DHT22;21906;50.812;7.132;2024-01-15T02:04:11;3.40;78.80
4107;DHT22;21906;50.812;7.132;2024-01-15T02:06:37;3.40;79.00
4107;DHT22;21906;50.812;7.132;2024-01-15T02:09:03;3.30;78.70
4107;DHT22;21906;50.812;7.132;2024-01-15T02:11:31;3.30;78.90
4107;DHT22;21906;50.812;7.132;2024-01-15T02:13:57;3.30;78.50
4107;DHT22;21906;50.812;7.132;2024-01-15T02:16:22;3.30;78.50
4107;DHT22;21906;50.812;7.132;2024-01-15T02:18:48;3.30;77.70
4107;DHT22;21906;50.812;7.132;2024-01-15T02:21:14;3.40;77.50
4107;DHT22;21906;50.812;7.132;2024-01-15T02:23:39;3.30;77.00
4107;DHT22;21906;50.812;7.132;2024-01-15T02:26:05;3.20;77.20
4107;DHT22;21906;50.812;7.132;2024-01-15T02:28:32;3.10;77.80
4107;DHT22;21906;50.812;7.132;2024-01-15T02:30:58;3.10;78.00
4107;DHT22;21906;50.812;7.132;2024-01-15T02:33:24;3.20;78.00
4107;DHT22;21906;50.812;7.132;2024-01-15T02:35:50;3.20;77.70
4107;DHT22;21906;50.812;7.132;2024-01-15T02:38:16;3.30;77.80
4107;DHT22;21906;50.812;7.132;2024-01-15T02:40:43;3.30;77.70
4107;DHT22;21906;50.812;7.132;2024-01-15T02:43:08;3.30;77.90
4107;DHT22;21906;50.812;7.132;2024-01-15T02:45:36;3.30;78.10
4107;DHT22;21906;50.812;7.132;2024-01-15T02:48:02;3.20;78.20
4107;DHT22;21906;50.812;7.132;2024-01-15T02:50:28;3.30;77.90
4107;DHT22;21906;50.812;7.132;2024-01-15T02:52:54;3.30;77.80
4107;DHT22;21906;50.812;7.132;2024-01-15T02:55:19;3.40;77.70
4107;DHT22;21906;50.812;7.132;2024-01-15T02:57:45;3.30;77.50
4107;DHT22;21906;50.812;7.132;2024-01-15T03:00:11;3.30;77.70
4107;DHT22;21906;50.812;7.132;2024-01-15T03:02:38;3.20;77.80
4107;DHT22;21906;50.812;7.132;2024-01-15T03:05:09;3.30;77.50
4107;DHT22;21906;50.812;7.132;2024-01-15T03:07:35;3.30;77.20
4107;DHT22;21906;50.812;7.132;2024-01-15T03:10:01;3.40;77.00
4107;DHT22;21906;50.812;7.132;2024-01-15T03:12:26;3.30;77.00
4107;DHT22;21906;50.812;7.132;2024-01-15T03:14:52;3.30;77.20
4107;DHT22;21906;50.812;7.132;2024-01-15T03:17:17;3.20;77.10
4107;DHT22;21906;50.812;7.132;2024-01-15T03:19:43;3.30;77.00
4107;DHT22;21906;50.812;7.132;2024-01-15T03:22:09;3.40;77.10
4107;DHT22;21906;50.812;7.132;2024-01-15T03:24:35;3.40;76.70
4107;DHT22;21906;50.812;7.132;2024-01-15T03:27:01;3.40;76.70
4107;DHT22;21906;50.812;7.132;2024-01-15T03:29:27;3.40;76.90
4107;DHT22;21906;50.812;7.132;2024-01-15T03:31:52;3.40;76.90
4107;DHT22;21906;50.812;7.132;2024-01-15T03:34:18;3.40;77.10
4107;DHT22;21906;50.812;7.132;2024-01-15T03:36:44;3.40;76.80
4107;DHT22;21906;50.812;7.132;2024-01-15T03:39:10;3.40;76.70
4107;DHT22;21906;50.812;7.132;2024-01-15T03:41:35;3.40;76.90
4107;DHT22;21906;50.812;7.132;2024-01-15T03:44:01;3.40;76.50
4107;DHT22;21906;50.812;7.132;2024-01-15T03:46:27;3.40;76.70
4107;DHT22;21906;50.812;7.132;2024-01-15T03:48:53;3.40;76.70
4107;DHT22;21906;50.812;7.132;2024-01-15T03:51:18;3.40;76.60
4107;DHT22;21906;50.812;7.132;2024-01-15T03:53:44;3.40;76.60
4107;DHT22;21906;50.812;7.132;2024-01-15T03:56:10;3.40;76.60
4107;DHT22;21906;50.812;7.132;2024-01-15T03:58:36;3.40;76.50
4107;DHT22;21906;50.812;7.132;2024-01-15T04:01:01;3.40;76.60
4107;DHT22;21906;50.812;7.132;2024-01-15T04:03:27;3.40;76.90
4107;DHT22;21906;50.812;7.132;2024-01-15T04:05:53;3.40;76.30
4107;DHT22;21906;50.812;7.132;2024-01-15T04:08:18;3.40;76.10
4107;DHT22;21906;50.812;7.132;2024-01-15T04:10:44;3.40;76.50
4107;DHT22;21906;50.812;7.132;2024-01-15T04:13:10;3.40;76.30
4107;DHT22;21906;50.812;7.132;2024-01-15T04:15:35;3.30;76.80
4107;DHT22;21906;50.812;7.132;2024-01-15T04:18:02;3.30;77.40
4107;DHT22;21906;50.812;7.132;2024-01-15T04:20:28;3.40;77.40
4107;DHT22;21906;50.812;7.132;2024-01-15T04:22:57;3.40;76.70
4107;DHT22;21906;50.812;7.132;2024-01-15T04:25:22;3.50;76.70
4107;DHT22;21906;50.812;7.132;2024-01-15T04:27:48;3.50;76.30
4107;DHT22;21906;50.812;7.132;2024-01-15T04:30:13;3.60;76.00
4107;DHT22;21906;50.812;7.132;2024-01-15T04:32:39;3.50;76.20
4107;DHT22;21906;50.812;7.132;2024-01-15T04:35:05;3.50;76.20
4107;DHT22;21906;50.812;7.132;2024-01-15T04:37:31;3.50;76.40
4107;DHT22;21906;50.812;7.132;2024-01-15T04:39:56;3.50;76.20
4107;DHT22;21906;50.812;7.132;2024-01-15T04:42:22;3.50;76.30
4107;DHT22;21906;50.812;7.132;2024-01-15T04:44:48;3.50;76.40
4107;DHT22;21906;50.812;7.132;2024-01-15T04:47:14;3.60;76.30
4107;DHT22;21906;50.812;7.132;2024-01-15T04:49:40;3.60;76.00
4107;DHT22;21906;50.812;7.132;2024-01-15T04:52:06;3.60;75.80
4107;DHT22;21906;50.812;7.132;2024-01-15T04:54:31;3.70;75.60
4107;DHT22;21906;50.812;7.132;2024-01-15T04:56:57;3.60;75.70
4107;DHT22;21906;50.812;7.132;2024-01-15T04:59:23;3.70;75.80
4107;DHT22;21906;50.812;7.132;2024-01-15T05:01:48;3.60;76.00
4107;DHT22;21906;50.812;7.132;2024-01-15T05:04:14;3.70;76.00
4107;DHT22;21906;50.812;7.132;2024-01-15T05:06:40;3.60;76.10
4107;DHT22;21906;50.812;7.132;2024-01-15T05:09:06;3.70;76.00
4107;DHT22;21906;50.812;7.132;2024-01-15T05:11:32;3.70;75.90
4107;DHT22;21906;50.812;7.132;2024-01-15T05:13:58;3.80;75.80
4107;DHT22;21906;50.812;7.132;2024-01-15T05:16:23;3.80;75.40
4107;DHT22;21906;50.812;7.132;2024-01-15T05:18:49;3.90;75.20
4107;DHT22;21906;50.812;7.132;2024-01-15T05:21:15;3.80;75.20
4107;DHT22;21906;50.812;7.132;2024-01-15T05:23:41;3.80;75.70
4107;DHT22;21906;50.812;7.132;2024-01-15T05:26:07;3.80;75.40
4107;DHT22;21906;50.812;7.132;2024-01-15T05:28:34;3.80;75.30
4107;DHT22;21906;50.812;7.132;2024-01-15T05:31:01;3.90;75.50
4107;DHT22;21906;50.812;7.132;2024-01-15T05:33:27;3.90;75.50
4107;DHT22;21906;50.812;7.132;2024-01-15T05:35:52;3.90;75.40
4107;DHT22;21906;50.812;7.132;2024-01-15T05:38:19;3.90;75.30
4107;DHT22;21906;50.812;7.132;2024-01-15T05:40:44;3.80;75.50
4107;DHT22;21906;50.812;7.132;2024-01-15T05:43:10;3.90;75.70
4107;DHT22;21906;50.812;7.132;2024-01-15T05:45:38;3.80;75.70
4107;DHT22;21906;50.812;7.132;2024-01-15T05:48:04;3.90;75.80
4107;DHT22;21906;50.812;7.132;2024-01-15T05:50:29;3.80;75.70
4107;DHT22;21906;50.812;7.132;2024-01-15T05:52:55;3.90;76.00
4107;DHT22;21906;50.812;7.132;2024-01-15T05:55:21;3.90;76.20
4107;DHT22;21906;50.812;7.132;2024-01-15T05:57:46;3.90;76.00
4107;DHT22;21906;50.812;7.132;2024-01-15T06:00:12;4.00;75.80
4107;DHT22;21906;50.812;7.132;2024-01-15T06:02:38;3.90;75.90
4107;DHT22;21906;50.812;7.132;2024-01-15T06:05:05;3.80;76.30
4107;DHT22;21906;50.812;7.132;2024-01-15T06:07:33;3.90;76.30
4107;DHT22;21906;50.812;7.132;2024-01-15T06:09:59;3.90;76.20
4107;DHT22;21906;50.812;7.132;2024-01-15T06:12:24;3.90;76.20
4107;DHT22;21906;50.812;7.132;2024-01-15T06:14:53;3.90;75.80
4107;DHT22;21906;50.812;7.132;2024-01-15T06:17:18;3.80;76.60
4107;DHT22;21906;50.812;7.132;2024-01-15T06:19:44;3.70;77.10
4107;DHT22;21906;50.812;7.132;2024-01-15T06:22:10;3.60;77.10
4107;DHT22;21906;50.812;7.132;2024-01-15T06:24:37;3.60;77.40
4107;DHT22;21906;50.812;7.132;2024-01-15T06:27:04;3.60;77.50
4107;DHT22;21906;50.812;7.132;2024-01-15T06:29:30;3.70;77.70
4107;DHT22;21906;50.812;7.132;2024-01-15T06:31:55;3.70;77.70
4107;DHT22;21906;50.812;7.132;2024-01-15T06:34:21;3.80;77.20
4107;DHT22;21906;50.812;7.132;2024-01-15T06:36:47;3.80;77.40
4107;DHT22;21906;50.812;7.132;2024-01-15T06:39:12;3.90;77.10
4107;DHT22;21906;50.812;7.132;2024-01-15T06:41:38;3.90;76.90
4107;DHT22;21906;50.812;7.132;2024-01-15T06:44:09;3.90;77.00
4107;DHT22;21906;50.812;7.132;2024-01-15T06:46:36;3.90;77.00
4107;DHT22;21906;50.812;7.132;2024-01-15T06:49:02;3.70;77.40
4107;DHT22;21906;50.812;7.132;2024-01-15T06:51:28;3.40;78.60
4107;DHT22;21906;50.812;7.132;2024-01-15T06:53:54;3.40;79.30
4107;DHT22;21906;50.812;7.132;2024-01-15T06:56:20;3.50;79.20
4107;DHT22;21906;50.812;7.132;2024-01-15T06:58:45;3.50;79.10
4107;DHT22;21906;50.812;7.132;2024-01-15T07:01:11;3.60;78.70
4107;DHT22;21906;50.812;7.132;2024-01-15T07:03:37;3.60;78.70
4107;DHT22;21906;50.812;7.132;2024-01-15T07:06:03;3.60;78.60
4107;DHT22;21906;50.812;7.132;2024-01-15T07:08:29;3.60;78.70
4107;DHT22;21906;50.812;7.132;2024-01-15T07:10:55;3.60;78.50
4107;DHT22;21906;50.812;7.132;2024-01-15T07:13:21;3.60;78.60
4107;DHT22;21906;50.812;7.132;2024-01-15T07:15:47;3.60;78.80
4107;DHT22;21906;50.812;7.132;2024-01-15T07:18:12;3.50;79.10
4107;DHT22;21906;50.812;7.132;2024-01-15T07:20:38;3.50;79.40
4107;DHT22;21906;50.812;7.132;2024-01-15T07:23:04;3.50;79.50
4107;DHT22;21906;50.812;7.132;2024-01-15T07:25:29;3.40;79.60
4107;DHT22;21906;50.812;7.132;2024-01-15T07:27:55;3.50;79.40
4107;DHT22;21906;50.812;7.132;2024-01-15T07:30:21;3.50;79.30
4107;DHT22;21906;50.812;7.132;2024-01-15T07:32:47;3.50;79.10
4107;DHT22;21906;50.812;7.132;2024-01-15T07:35:16;3.70;79.00
4107;DHT22;21906;50.812;7.132;2024-01-15T07:37:42;3.60;79.20
4107;DHT22;21906;50.812;7.132;2024-01-15T07:40:08;3.50;79.20
4107;DHT22;21906;50.812;7.132;2024-01-15T07:42:35;3.50;79.50
4107;DHT22;21906;50.812;7.132;2024-01-15T07:45:01;3.40;79.70
4107;DHT22;21906;50.812;7.132;2024-01-15T07:47:26;3.60;79.50
4107;DHT22;21906;50.812;7.132;2024-01-15T07:49:53;3.60;79.50
4107;DHT22;21906;50.812;7.132;2024-01-15T07:52:19;3.80;79.30
4107;DHT22;21906;50.812;7.132;2024-01-15T07:54:45;3.80;78.70
4107;DHT22;21906;50.812;7.132;2024-01-15T07:57:11;3.90;78.70
4107;DHT22;21906;50.812;7.132;2024-01-15T07:59:36;3.70;78.80
4107;DHT22;21906;50.812;7.132;2024-01-15T08:02:02;3.70;78.90
4107;DHT22;21906;50.812;7.132;2024-01-15T08:04:28;3.80;78.70
4107;DHT22;21906;50.812;7.132;2024-01-15T08:06:54;3.90;78.40
4107;DHT22;21906;50.812;7.132;2024-01-15T08:09:20;3.90;78.30
4107;DHT22;21906;50.812;7.132;2024-01-15T08:11:45;3.90;78.20
4107;DHT22;21906;50.812;7.132;2024-01-15T08:14:12;3.90;77.90
4107;DHT22;21906;50.812;7.132;2024-01-15T08:16:38;4.00;78.20
4107;DHT22;21906;50.812;7.132;2024-01-15T08:19:04;4.10;78.20
4107;DHT22;21906;50.812;7.132;2024-01-15T08:21:30;4.20;78.10
4107;DHT22;21906;50.812;7.132;2024-01-15T08:23:57;4.20;77.60
4107;DHT22;21906;50.812;7.132;2024-01-15T08:26:24;4.30;77.40
4107;DHT22;21906;50.812;7.132;2024-01-15T08:28:49;4.30;77.20
4107;DHT22;21906;50.812;7.132;2024-01-15T08:31:15;4.30;77.10
4107;DHT22;21906;50.812;7.132;2024-01-15T08:33:41;4.30;77.20
4107;DHT22;21906;50.812;7.132;2024-01-15T08:36:07;4.40;76.30
4107;DHT22;21906;50.812;7.132;2024-01-15T08:38:33;4.40;76.20
4107;DHT22;21906;50.812;7.132;2024-01-15T08:40:59;4.40;76.20
4107;DHT22;21906;50.812;7.132;2024-01-15T08:43:26;4.40;75.00
4107;DHT22;21906;50.812;7.132;2024-01-15T08:45:53;4.30;74.50
4107;DHT22;21906;50.812;7.132;2024-01-15T08:48:19;4.30;74.70
4107;DHT22;21906;50.812;7.132;2024-01-15T08:50:44;4.20;74.60
4107;DHT22;21906;50.812;7.132;2024-01-15T08:53:13;4.20;74.20
4107;DHT22;21906;50.812;7.132;2024-01-15T08:55:39;4.20;74.20
4107;DHT22;21906;50.812;7.132;2024-01-15T08:58:06;4.30;74.40
4107;DHT22;21906;50.812;7.132;2024-01-15T09:00:32;4.30;74.10
4107;DHT22;21906;50.812;7.132;2024-01-15T09:02:58;4.40;74.00
4107;DHT22;21906;50.812;7.132;2024-01-15T09:05:23;4.50;73.40
4107;DHT22;21906;50.812;7.132;2024-01-15T09:07:49;4.30;73.30
4107;DHT22;21906;50.812;7.132;2024-01-15T09:10:18;4.40;73.70
4107;DHT22;21906;50.812;7.132;2024-01-15T09:12:44;4.40;73.60
4107;DHT22;21906;50.812;7.132;2024-01-15T09:15:09;4.40;73.40
4107;DHT22;21906;50.812;7.132;2024-01-15T09:17:35;4.40;73.20
4107;DHT22;21906;50.812;7.132;2024-01-15T09:20:01;4.30;73.40
4107;DHT22;21906;50.812;7.132;2024-01-15T09:22:27;4.30;73.80
4107;DHT22;21906;50.812;7.132;2024-01-15T09:24:53;4.20;74.20
4107;DHT22;21906;50.812;7.132;2024-01-15T09:27:18;4.20;74.00
4107;DHT22;21906;50.812;7.132;2024-01-15T09:29:44;4.10;74.40
4107;DHT22;21906;50.812;7.132;2024-01-15T09:32:12;4.10;74.00
4107;DHT22;21906;50.812;7.132;2024-01-15T09:34:38;4.00;74.40
4107;DHT22;21906;50.812;7.132;2024-01-15T09:37:04;4.10;74.20
4107;DHT22;21906;50.812;7.132;2024-01-15T09:39:30;4.00;74.00
4107;DHT22;21906;50.812;7.132;2024-01-15T09:41:56;4.00;74.30
4107;DHT22;21906;50.812;7.132;2024-01-15T09:44:22;4.10;74.30
4107;DHT22;21906;50.812;7.132;2024-01-15T09:46:48;4.00;74.60
4107;DHT22;21906;50.812;7.132;2024-01-15T09:49:16;3.90;75.30
4107;DHT22;21906;50.812;7.132;2024-01-15T09:51:43;4.00;75.00
4107;DHT22;21906;50.812;7.132;2024-01-15T09:54:09;4.10;75.30
4107;DHT22;21906;50.812;7.132;2024-01-15T09:56:35;4.10;75.20
4107;DHT22;21906;50.812;7.132;2024-01-15T09:59:01;4.00;75.60
4107;DHT22;21906;50.812;7.132;2024-01-15T10:01:30;3.90;76.30
4107;DHT22;21906;50.812;7.132;2024-01-15T10:03:56;3.90;76.80
4107;DHT22;21906;50.812;7.132;2024-01-15T10:06:22;3.90;77.20
4107;DHT22;21906;50.812;7.132;2024-01-15T10:08:50;3.70;77.80
4107;DHT22;21906;50.812;7.132;2024-01-15T10:11:16;3.70;78.20
4107;DHT22;21906;50.812;7.132;2024-01-15T10:13:48;3.50;78.80
4107;DHT22;21906;50.812;7.132;2024-01-15T10:16:19;3.50;79.00
4107;DHT22;21906;50.812;7.132;2024-01-15T10:18:45;3.50;79.10
4107;DHT22;21906;50.812;7.132;2024-01-15T10:21:10;3.40;79.50
4107;DHT22;21906;50.812;7.132;2024-01-15T10:23:36;3.30;79.80
4107;DHT22;21906;50.812;7.132;2024-01-15T10:26:03;3.30;80.20
4107;DHT22;21906;50.812;7.132;2024-01-15T10:28:29;3.40;80.20
4107;DHT22;21906;50.812;7.132;2024-01-15T10:30:57;3.50;80.00
4107;DHT22;21906;50.812;7.132;2024-01-15T10:33:24;3.40;79.80
4107;DHT22;21906;50.812;7.132;2024-01-15T10:35:57;3.40;80.10
4107;DHT22;21906;50.812;7.132;2024-01-15T10:38:23;3.40;80.00
4107;DHT22;21906;50.812;7.132;2024-01-15T10:40:56;3.50;79.80
4107;DHT22;21906;50.812;7.132;2024-01-15T10:43:22;3.50;79.90
4107;DHT22;21906;50.812;7.132;2024-01-15T10:45:50;3.60;79.70
4107;DHT22;21906;50.812;7.132;2024-01-15T10:48:18;3.60;79.50
4107;DHT22;21906;50.812;7.132;2024-01-15T10:50:48;3.60;79.70
4107;DHT22;21906;50.812;7.132;2024-01-15T10:53:15;3.60;79.60
4107;DHT22;21906;50.812;7.132;2024-01-15T10:55:42;3.50;79.70
4107;DHT22;21906;50.812;7.132;2024-01-15T10:58:09;3.50;79.90
4107;DHT22;21906;50.812;7.132;2024-01-15T11:00:35;3.50;79.70
4107;DHT22;21906;50.812;7.132;2024-01-15T11:03:04;3.50;79.60
4107;DHT22;21906;50.812;7.132;2024-01-15T11:05:41;3.50;79.50
4107;DHT22;21906;50.812;7.132;2024-01-15T11:08:08;3.50;79.80
4107;DHT22;21906;50.812;7.132;2024-01-15T11:16:05;3.40;79.60
4107;DHT22;21906;50.812;7.132;2024-01-15T11:18:35;3.40;80.20
4107;DHT22;21906;50.812;7.132;2024-01-15T11:23:52;3.30;80.60
4107;DHT22;21906;50.812;7.132;2024-01-15T11:26:43;3.30;80.50
4107;DHT22;21906;50.812;7.132;2024-01-15T11:32:04;3.50;80.30
4107;DHT22;21906;50.812;7.132;2024-01-15T11:37:15;3.40;80.30
4107;DHT22;21906;50.812;7.132;2024-01-15T11:39:42;3.50;80.60
4107;DHT22;21906;50.812;7.132;2024-01-15T11:42:08;3.50;80.90
4107;DHT22;21906;50.812;7.132;2024-01-15T11:44:35;3.50;80.50
4107;DHT22;21906;50.812;7.132;2024-01-15T11:50:00;3.60;80.30
4107;DHT22;21906;50.812;7.132;2024-01-15T11:52:35;3.50;80.40
4107;DHT22;21906;50.812;7.132;2024-01-15T11:57:54;3.60;80.60
4107;DHT22;21906;50.812;7.132;2024-01-15T12:00:21;3.60;80.40
4107;DHT22;21906;50.812;7.132;2024-01-15T12:02:47;3.60;80.70
4107;DHT22;21906;50.812;7.132;2024-01-15T12:05:15;3.60;80.90
4107;DHT22;21906;50.812;7.132;2024-01-15T12:07:49;3.70;80.30
4107;DHT22;21906;50.812;7.132;2024-01-15T12:10:20;3.70;79.40
4107;DHT22;21906;50.812;7.132;2024-01-15T12:13:05;3.70;79.80
4107;DHT22;21906;50.812;7.132;2024-01-15T12:15:31;3.70;80.00
4107;DHT22;21906;50.812;7.132;2024-01-15T12:17:59;3.80;79.50
4107;DHT22;21906;50.812;7.132;2024-01-15T12:20:34;3.60;79.90
4107;DHT22;21906;50.812;7.132;2024-01-15T12:23:01;3.50;79.80
4107;DHT22;21906;50.812;7.132;2024-01-15T12:25:30;3.50;79.80
4107;DHT22;21906;50.812;7.132;2024-01-15T12:27:56;3.50;80.00
4107;DHT22;21906;50.812;7.132;2024-01-15T12:30:22;3.60;80.10
4107;DHT22;21906;50.812;7.132;2024-01-15T12:32:48;3.70;79.90
4107;DHT22;21906;50.812;7.132;2024-01-15T12:35:14;3.90;79.20
4107;DHT22;21906;50.812;7.132;2024-01-15T12:37:41;4.00;78.50
4107;DHT22;21906;50.812;7.132;2024-01-15T12:40:08;4.00;78.60
4107;DHT22;21906;50.812;7.132;2024-01-15T12:42:39;4.30;78.40
4107;DHT22;21906;50.812;7.132;2024-01-15T12:45:06;4.40;78.30
4107;DHT22;21906;50.812;7.132;2024-01-15T12:47:32;4.60;76.90
4107;DHT22;21906;50.812;7.132;2024-01-15T12:49:58;4.60;76.30
4107;DHT22;21906;50.812;7.132;2024-01-15T12:52:30;4.50;76.10
4107;DHT22;21906;50.812;7.132;2024-01-15T12:54:57;4.40;75.50
4107;DHT22;21906;50.812;7.132;2024-01-15T12:57:22;4.40;76.10
4107;DHT22;21906;50.812;7.132;2024-01-15T12:59:49;4.40;76.50
4107;DHT22;21906;50.812;7.132;2024-01-15T13:02:16;4.20;76.50
4107;DHT22;21906;50.812;7.132;2024-01-15T13:04:42;4.20;75.40
4107;DHT22;21906;50.812;7.132;2024-01-15T13:07:08;4.20;75.60
4107;DHT22;21906;50.812;7.132;2024-01-15T13:09:35;4.20;74.20
4107;DHT22;21906;50.812;7.132;2024-01-15T13:12:04;4.20;74.80
4107;DHT22;21906;50.812;7.132;2024-01-15T13:14:31;4.20;75.00
4107;DHT22;21906;50.812;7.132;2024-01-15T13:16:58;4.20;74.70
4107;DHT22;21906;50.812;7.132;2024-01-15T13:19:25;4.20;74.70
4107;DHT22;21906;50.812;7.132;2024-01-15T13:21:51;4.20;74.60
4107;DHT22;21906;50.812;7.132;2024-01-15T13:24:21;4.40;74.90
4107;DHT22;21906;50.812;7.132;2024-01-15T13:26:47;4.40;74.40
4107;DHT22;21906;50.812;7.132;2024-01-15T13:29:13;4.40;75.20
4107;DHT22;21906;50.812;7.132;2024-01-15T13:31:39;4.40;74.40
4107;DHT22;21906;50.812;7.132;2024-01-15T13:34:05;4.40;74.00
4107;DHT22;21906;50.812;7.132;2024-01-15T13:36:30;4.40;74.80
4107;DHT22;21906;50.812;7.132;2024-01-15T13:38:56;4.40;74.80
4107;DHT22;21906;50.812;7.132;2024-01-15T13:41:22;4.40;74.20
4107;DHT22;21906;50.812;7.132;2024-01-15T13:43:53;4.30;73.80
4107;DHT22;21906;50.812;7.132;2024-01-15T13:46:20;4.40;74.20
4107;DHT22;21906;50.812;7.132;2024-01-15T13:48:47;4.40;73.70
4107;DHT22;21906;50.812;7.132;2024-01-15T13:51:13;4.20;74.80
4107;DHT22;21906;50.812;7.132;2024-01-15T13:53:39;4.20;75.10
4107;DHT22;21906;50.812;7.132;2024-01-15T13:56:06;4.00;75.40
4107;DHT22;21906;50.812;7.132;2024-01-15T13:58:32;4.10;75.80
4107;DHT22;21906;50.812;7.132;2024-01-15T14:01:01;4.00;75.90
4107;DHT22;21906;50.812;7.132;2024-01-15T14:03:26;3.90;76.40
4107;DHT22;21906;50.812;7.132;2024-01-15T14:05:53;3.90;77.30
4107;DHT22;21906;50.812;7.132;2024-01-15T14:08:18;3.90;77.00
4107;DHT22;21906;50.812;7.132;2024-01-15T14:10:44;4.00;76.90
4107;DHT22;21906;50.812;7.132;2024-01-15T14:13:10;4.00;77.40
4107;DHT22;21906;50.812;7.132;2024-01-15T14:15:36;3.90;77.50
4107;DHT22;21906;50.812;7.132;2024-01-15T14:18:02;3.90;77.30
4107;DHT22;21906;50.812;7.132;2024-01-15T14:20:28;4.00;77.40
4107;DHT22;21906;50.812;7.132;2024-01-15T14:22:54;4.10;77.50
4107;DHT22;21906;50.812;7.132;2024-01-15T14:25:20;4.10;77.20
4107;DHT22;21906;50.812;7.132;2024-01-15T14:27:47;4.00;77.00
4107;DHT22;21906;50.812;7.132;2024-01-15T14:30:13;4.00;76.60
4107;DHT22;21906;50.812;7.132;2024-01-15T14:32:40;4.00;76.20
4107;DHT22;21906;50.812;7.132;2024-01-15T14:35:06;4.10;75.50
4107;DHT22;21906;50.812;7.132;2024-01-15T14:37:34;4.00;76.10
4107;DHT22;21906;50.812;7.132;2024-01-15T14:40:00;3.90;76.30
4107;DHT22;21906;50.812;7.132;2024-01-15T14:42:26;3.80;77.20
4107;DHT22;21906;50.812;7.132;2024-01-15T14:44:51;3.80;77.70
4107;DHT22;21906;50.812;7.132;2024-01-15T14:47:17;3.80;77.50
4107;DHT22;21906;50.812;7.132;2024-01-15T14:49:44;3.70;78.20
4107;DHT22;21906;50.812;7.132;2024-01-15T14:52:10;3.60;78.00
4107;DHT22;21906;50.812;7.132;2024-01-15T14:54:36;3.60;78.50
4107;DHT22;21906;50.812;7.132;2024-01-15T14:57:02;3.60;78.40
4107;DHT22;21906;50.812;7.132;2024-01-15T14:59:27;3.60;78.40
4107;DHT22;21906;50.812;7.132;2024-01-15T15:01:55;3.50;78.90
4107;DHT22;21906;50.812;7.132;2024-01-15T15:04:22;3.60;79.00
4107;DHT22;21906;50.812;7.132;2024-01-15T15:06:48;3.50;78.90
4107;DHT22;21906;50.812;7.132;2024-01-15T15:09:13;3.40;79.50
4107;DHT22;21906;50.812;7.132;2024-01-15T15:11:39;3.40;79.70
4107;DHT22;21906;50.812;7.132;2024-01-15T15:14:05;3.40;79.90
4107;DHT22;21906;50.812;7.132;2024-01-15T15:16:31;3.40;80.10
4107;DHT22;21906;50.812;7.132;2024-01-15T15:18:57;3.40;79.60
4107;DHT22;21906;50.812;7.132;2024-01-15T15:21:23;3.50;79.00
4107;DHT22;21906;50.812;7.132;2024-01-15T15:23:48;3.40;79.20
4107;DHT22;21906;50.812;7.132;2024-01-15T15:26:14;3.40;79.40
4107;DHT22;21906;50.812;7.132;2024-01-15T15:28:40;3.40;79.70
4107;DHT22;21906;50.812;7.132;2024-01-15T15:31:06;3.50;79.70
4107;DHT22;21906;50.812;7.132;2024-01-15T15:33:37;3.50;79.40
4107;DHT22;21906;50.812;7.132;2024-01-15T15:36:03;3.50;79.40
4107;DHT22;21906;50.812;7.132;2024-01-15T15:38:32;3.50;79.50
4107;DHT22;21906;50.812;7.132;2024-01-15T15:40:58;3.40;79.60
4107;DHT22;21906;50.812;7.132;2024-01-15T15:43:28;3.50;79.30
4107;DHT22;21906;50.812;7.132;2024-01-15T15:45:54;3.50;79.10
4107;DHT22;21906;50.812;7.132;2024-01-15T15:48:20;3.50;79.30
4107;DHT22;21906;50.812;7.132;2024-01-15T15:50:45;3.60;79.20
4107;DHT22;21906;50.812;7.132;2024-01-15T15:53:12;3.60;78.50
4107;DHT22;21906;50.812;7.132;2024-01-15T15:55:37;3.50;78.30
4107;DHT22;21906;50.812;7.132;2024-01-15T15:58:05;3.50;78.40
4107;DHT22;21906;50.812;7.132;2024-01-15T16:00:31;3.30;79.00
4107;DHT22;21906;50.812;7.132;2024-01-15T16:02:57;3.30;79.60
4107;DHT22;21906;50.812;7.132;2024-01-15T16:05:23;3.30;79.40
4107;DHT22;21906;50.812;7.132;2024-01-15T16:07:49;3.20;79.70
4107;DHT22;21906;50.812;7.132;2024-01-15T16:10:16;3.20;80.00
4107;DHT22;21906;50.812;7.132;2024-01-15T16:12:43;3.10;80.00
4107;DHT22;21906;50.812;7.132;2024-01-15T16:15:21;3.20;80.00
4107;DHT22;21906;50.812;7.132;2024-01-15T16:17:50;3.30;79.60